Time;durP1;ratioP1;P1;durP2;ratioP2;P2;SDS_P1;SDS_P2;PMS_P1;PMS_P2;Temp;Humidity;BMP_temperature;BMP_pressure;BME280_temperature;BME280_humidity;BME280_pressure;Samples;Min_cycle;Max_cycle;Signal;HPM_P1;HPM_P2
2022/09/11 17:42:36;;;;;;;4.88;3.50;;;24.20;82.90;;;;;;10523568;27;20412;-76
2022/09/11 17:47:39;;;;;;;8.93;4.20;;;23.90;84.60;;;;;;10477150;28;20063;-75
2022/09/11 17:52:41;;;;;;;5.90;4.40;;;23.60;86.00;;;;;;10458544;28;20087;-76
2022/09/11 17:57:51;;;;;;;7.07;4.97;;;23.40;88.30;;;;;;10470589;28;20079;-73
2022/09/11 18:02:57;;;;;;;5.88;4.13;;;23.20;89.00;;;;;;10482142;28;20056;-73
2022/09/11 18:08:01;;;;;;;5.60;3.95;;;22.90;90.00;;;;;;10483259;28;20139;-83
2022/09/11 18:13:04;;;;;;;5.75;4.00;;;22.70;90.60;;;;;;10484189;28;20547;-83
2022/09/11 18:18:06;;;;;;;5.60;4.40;;;22.40;91.20;;;;;;10485139;28;20041;-83
2022/09/11 18:23:08;;;;;;;6.60;4.55;;;22.30;91.50;;;;;;10476396;28;20453;-83
2022/09/11 18:28:12;;;;;;;7.43;4.57;;;22.00;91.40;;;;;;10472857;28;20049;-86
2022/09/11 18:33:15;;;;;;;6.32;4.38;;;21.70;92.00;;;;;;10483020;28;20059;-78
2022/09/11 18:38:18;;;;;;;7.47;4.13;;;21.70;93.00;;;;;;10477313;28;20480;-79
2022/09/11 18:43:22;;;;;;;7.28;4.85;;;21.50;93.20;;;;;;10481210;28;20045;-80
2022/09/11 18:48:24;;;;;;;6.93;4.57;;;21.20;93.60;;;;;;10479933;28;20056;-79
2022/09/11 18:53:26;;;;;;;5.93;4.70;;;21.00;94.40;;;;;;10454862;28;20041;-82
2022/09/11 18:58:30;;;;;;;6.45;4.90;;;20.90;94.80;;;;;;10455921;28;20045;-78
2022/09/11 19:03:33;;;;;;;7.50;4.88;;;20.70;95.30;;;;;;10453920;28;20052;-77
2022/09/11 19:08:36;;;;;;;6.07;4.60;;;20.60;96.10;;;;;;10454437;28;20045;-77
2022/09/11 19:13:40;;;;;;;7.70;4.53;;;20.50;96.70;;;;;;10445184;28;20077;-77
2022/09/11 19:18:42;;;;;;;12.85;5.22;;;20.30;96.80;;;;;;10412960;28;20083;-77
2022/09/11 19:23:47;;;;;;;7.85;4.35;;;20.10;97.20;;;;;;10420064;28;20045;-77
2022/09/11 19:28:51;;;;;;;7.60;4.70;;;20.00;97.80;;;;;;10452461;28;20511;-77
2022/09/11 19:33:55;;;;;;;11.00;6.90;;;19.80;98.40;;;;;;10452264;28;20091;-79
2022/09/11 19:38:58;;;;;;;8.30;5.20;;;19.70;98.10;;;;;;10453605;28;20061;-79
2022/09/11 19:44:05;;;;;;;7.15;5.07;;;19.60;98.50;;;;;;10452428;28;20048;-79
2022/09/11 19:49:09;;;;;;;10.05;5.05;;;19.20;99.30;;;;;;10452217;28;20099;-81
2022/09/11 19:54:13;;;;;;;9.38;5.10;;;19.00;99.80;;;;;;10450885;28;20084;-77
2022/09/11 19:59:17;;;;;;;8.18;5.00;;;18.60;99.90;;;;;;10453331;28;20078;-76
2022/09/11 20:04:19;;;;;;;6.88;4.78;;;18.80;99.90;;;;;;10448654;28;20152;-78
2022/09/11 20:09:21;;;;;;;6.72;4.95;;;18.80;99.90;;;;;;10451344;28;20052;-77
2022/09/11 20:14:24;;;;;;;9.32;5.22;;;18.70;99.90;;;;;;10445036;28;20037;-79
2022/09/11 20:19:27;;;;;;;7.95;5.93;;;18.20;99.90;;;;;;10448826;28;20063;-78
2022/09/11 20:24:29;;;;;;;6.75;4.88;;;17.30;99.90;;;;;;10413303;28;20055;-78
2022/09/11 20:29:32;;;;;;;9.40;5.30;;;17.50;99.90;;;;;;10445153;28;20052;-81
2022/09/11 20:34:34;;;;;;;9.70;6.10;;;17.70;99.90;;;;;;10442031;28;20079;-77
2022/09/11 20:39:37;;;;;;;8.90;6.20;;;17.70;99.90;;;;;;10451405;28;20079;-77
2022/09/11 20:44:41;;;;;;;39.38;23.77;;;17.80;99.90;;;;;;10450709;28;20049;-78
2022/09/11 20:49:43;;;;;;;23.35;15.02;;;17.80;99.90;;;;;;10451549;28;20045;-78
2022/09/11 20:54:47;;;;;;;8.35;5.63;;;17.90;99.90;;;;;;10448669;28;20045;-78
2022/09/11 20:59:50;;;;;;;8.73;5.93;;;17.80;99.90;;;;;;10451116;28;20049;-78
2022/09/11 21:04:52;;;;;;;7.68;5.28;;;17.80;99.90;;;;;;10448812;28;20509;-78
2022/09/11 21:09:54;;;;;;;8.73;5.50;;;17.70;99.90;;;;;;10449902;28;20053;-77
2022/09/11 21:14:58;;;;;;;9.57;5.38;;;17.80;99.90;;;;;;10418661;28;20049;-79
2022/09/11 21:20:00;;;;;;;8.27;5.15;;;17.70;99.90;;;;;;10450789;28;20055;-78
2022/09/11 21:25:02;;;;;;;6.50;4.95;;;17.60;99.90;;;;;;10448941;28;20057;-79
2022/09/11 21:30:07;;;;;;;7.00;4.97;;;17.60;99.90;;;;;;10448521;28;20056;-78
2022/09/11 21:35:09;;;;;;;9.40;5.05;;;17.60;99.90;;;;;;10448408;28;20041;-78
2022/09/11 21:40:12;;;;;;;8.98;4.95;;;17.50;99.90;;;;;;10449116;28;20063;-78
2022/09/11 21:45:16;;;;;;;7.55;4.78;;;17.40;99.90;;;;;;10449881;28;20047;-78
2022/09/11 21:50:18;;;;;;;6.95;5.10;;;17.10;99.90;;;;;;10455101;28;20051;-78
2022/09/11 21:55:20;;;;;;;7.22;4.75;;;17.10;99.90;;;;;;10454173;28;20049;-78
2022/09/11 22:00:24;;;;;;;8.40;4.60;;;17.10;99.90;;;;;;10453511;28;20049;-77
2022/09/11 22:05:26;;;;;;;5.95;4.60;;;16.90;99.90;;;;;;10453871;28;20076;-78
2022/09/11 22:10:28;;;;;;;8.40;4.80;;;16.80;99.90;;;;;;10423256;28;20395;-78
2022/09/11 22:15:31;;;;;;;8.77;5.00;;;16.70;99.90;;;;;;10419234;28;20041;-78
2022/09/11 22:20:34;;;;;;;7.88;5.15;;;16.70;99.90;;;;;;10453227;28;20057;-78
2022/09/11 22:25:36;;;;;;;9.20;4.93;;;16.70;99.90;;;;;;10456520;28;20049;-78
2022/09/11 22:30:43;;;;;;;7.20;5.20;;;16.60;99.90;;;;;;10460972;28;20084;-78
2022/09/11 22:35:45;;;;;;;8.20;4.97;;;16.70;99.90;;;;;;10458425;28;20501;-78
2022/09/11 22:40:53;;;;;;;7.00;4.68;;;16.60;99.90;;;;;;10457508;28;20518;-78
2022/09/11 22:45:56;;;;;;;11.83;5.20;;;16.60;99.90;;;;;;10461487;28;20045;-77
2022/09/11 22:50:59;;;;;;;6.72;4.90;;;16.40;99.90;;;;;;10460002;28;20483;-78
2022/09/11 22:56:01;;;;;;;6.45;4.63;;;16.30;99.90;;;;;;10458928;28;20060;-77
2022/09/11 23:01:08;;;;;;;9.60;6.32;;;16.10;99.90;;;;;;10459160;28;20060;-77
2022/09/11 23:11:31;;;;;;;13.30;7.90;;;16.00;99.90;;;;;;10458405;28;20056;-79
2022/09/11 23:16:34;;;;;;;8.57;5.57;;;16.00;99.90;;;;;;10460241;28;20063;-79
2022/09/11 23:21:36;;;;;;;8.52;5.70;;;16.00;99.90;;;;;;10459017;28;20057;-79
2022/09/11 23:26:38;;;;;;;9.70;5.70;;;16.10;99.90;;;;;;10459313;28;20049;-79
2022/09/11 23:31:43;;;;;;;8.60;5.75;;;15.90;99.90;;;;;;10458360;28;20052;-78
2022/09/11 23:36:45;;;;;;;9.30;5.63;;;15.90;99.90;;;;;;10459260;28;20045;-79
2022/09/11 23:41:48;;;;;;;8.35;5.13;;;15.90;99.90;;;;;;10457851;28;20061;-79
2022/09/11 23:46:51;;;;;;;8.48;5.55;;;15.80;99.90;;;;;;10458323;28;20053;-78
2022/09/11 23:51:53;;;;;;;8.70;4.93;;;15.80;99.90;;;;;;10457079;28;20049;-78
2022/09/11 23:56:55;;;;;;;6.55;4.55;;;15.80;99.90;;;;;;10458248;28;20048;-80
